createdAt,value
2019-02-23T00:02:29.217Z,45.35
2019-02-23T00:04:59.337Z,38.58
2019-02-23T00:07:29.502Z,50.12
2019-02-23T00:09:59.621Z,44.33
2019-02-23T00:12:30.949Z,51.58
2019-02-23T00:15:01.111Z,47.93
2019-02-23T00:17:31.384Z,41.15
2019-02-23T00:20:01.665Z,41.33
2019-02-23T00:22:33.196Z,40.92
2019-02-23T00:25:17.323Z,41.98
2019-02-23T00:27:51.818Z,40.80
2019-02-23T00:32:51.158Z,39.63
2019-02-23T00:35:21.286Z,35.68
2019-02-23T00:37:51.440Z,47.70
2019-02-23T00:40:37.088Z,40.03
2019-02-23T00:43:08.808Z,35.38
2019-02-23T00:45:39.918Z,38.55
2019-02-23T00:48:10.158Z,35.40
2019-02-23T00:50:40.293Z,37.55
2019-02-23T00:53:10.456Z,38.35
2019-02-23T00:55:51.016Z,37.25
2019-02-23T00:58:26.972Z,41.05
2019-02-23T01:01:03.536Z,38.30
2019-02-23T01:03:33.751Z,40.60
2019-02-23T01:06:05.352Z,43.30
2019-02-23T01:08:35.522Z,38.90
2019-02-23T01:11:05.538Z,39.40
2019-02-23T01:13:35.713Z,45.40
2019-02-23T01:16:05.902Z,42.08
2019-02-23T01:18:47.073Z,45.75
2019-02-23T01:21:17.079Z,45.80
2019-02-23T01:23:47.299Z,40.98
2019-02-23T01:26:17.303Z,44.00
2019-02-23T01:28:47.437Z,41.98
2019-02-23T01:31:17.541Z,42.33
2019-02-23T01:33:49.163Z,42.35
2019-02-23T01:36:25.226Z,44.53
2019-02-23T01:39:21.458Z,37.05
2019-02-23T01:41:51.643Z,41.40
2019-02-23T01:44:27.863Z,36.95
2019-02-23T01:46:58.031Z,38.45
2019-02-23T01:49:30.986Z,42.55
2019-02-23T01:52:01.440Z,44.20
2019-02-23T01:54:31.568Z,40.10
2019-02-23T01:57:01.679Z,47.17
2019-02-23T01:59:31.879Z,37.05
2019-02-23T02:02:02.056Z,41.28
2019-02-23T02:04:32.242Z,41.80
2019-02-23T02:07:02.333Z,40.30
2019-02-23T02:09:32.479Z,40.80
2019-02-23T02:12:02.710Z,38.08
2019-02-23T02:14:32.878Z,40.05
2019-02-23T02:17:16.605Z,34.33
2019-02-23T02:22:15.747Z,37.40
2019-02-23T02:24:46.215Z,41.88
2019-02-23T02:27:59.716Z,32.25
2019-02-23T02:30:31.666Z,45.63
2019-02-23T02:33:01.844Z,42.98
2019-02-23T02:35:32.068Z,45.88
2019-02-23T02:38:02.151Z,35.15
2019-02-23T02:40:32.339Z,31.55
2019-02-23T02:43:02.533Z,29.98
2019-02-23T02:45:39.507Z,41.50
2019-02-23T02:48:15.343Z,30.08
2019-02-23T02:50:48.496Z,35.88
2019-02-23T02:53:18.570Z,32.63
2019-02-23T02:55:49.122Z,32.88
2019-02-23T02:58:22.137Z,38.88
2019-02-23T03:00:52.508Z,30.72
2019-02-23T03:03:22.538Z,34.78
2019-02-23T03:05:52.796Z,33.60
2019-02-23T03:08:22.971Z,32.75
2019-02-23T03:10:53.211Z,34.30
2019-02-23T03:13:26.040Z,29.57
2019-02-23T03:15:56.233Z,32.10
2019-02-23T03:18:26.368Z,34.25
2019-02-23T03:20:56.565Z,31.20
2019-02-23T03:23:26.786Z,37.70
2019-02-23T03:25:57.146Z,32.83
2019-02-23T03:28:28.805Z,34.33
2019-02-23T03:30:58.951Z,36.77
2019-02-23T03:33:29.064Z,41.40
2019-02-23T03:35:59.283Z,38.58
2019-02-23T03:38:37.075Z,35.63
2019-02-23T03:41:07.327Z,34.85
2019-02-23T03:43:37.289Z,35.03
2019-02-23T03:46:07.260Z,38.00
2019-02-23T03:48:45.119Z,35.43
2019-02-23T03:51:15.303Z,35.25
2019-02-23T03:53:45.443Z,35.40
2019-02-23T03:56:15.611Z,42.10
2019-02-23T03:58:45.733Z,38.50
2019-02-23T04:01:15.941Z,37.38
2019-02-23T04:03:46.021Z,37.60
2019-02-23T04:06:16.233Z,46.48
2019-02-23T04:08:46.320Z,37.65
2019-02-23T04:11:16.547Z,38.73
2019-02-23T04:13:46.577Z,43.55
2019-02-23T04:16:16.769Z,47.62
2019-02-23T04:18:46.899Z,38.58
2019-02-23T04:21:17.116Z,33.55
2019-02-23T04:23:47.345Z,40.67
2019-02-23T04:26:17.518Z,39.90
2019-02-23T04:28:47.581Z,46.23
2019-02-23T04:31:17.768Z,43.40
2019-02-23T04:33:47.705Z,42.88
2019-02-23T04:36:17.822Z,45.08
2019-02-23T04:38:51.409Z,48.28
2019-02-23T04:41:22.545Z,79.07
2019-02-23T04:43:52.905Z,74.42
2019-02-23T04:46:23.298Z,69.32
2019-02-23T04:48:53.928Z,72.75
2019-02-23T04:51:24.127Z,95.72
2019-02-23T04:53:54.256Z,91.78
2019-02-23T04:56:32.058Z,90.35
2019-02-23T04:59:02.152Z,96.72
2019-02-23T05:01:35.508Z,91.57
2019-02-23T05:06:34.769Z,86.57
2019-02-23T05:09:05.357Z,79.12
2019-02-23T05:11:35.561Z,76.47
2019-02-23T05:14:05.679Z,89.15
2019-02-23T05:16:35.821Z,97.35
2019-02-23T05:19:05.994Z,85.87
2019-02-23T05:21:36.281Z,80.60
2019-02-23T05:24:06.289Z,93.33
2019-02-23T05:26:36.530Z,92.15
2019-02-23T05:29:06.636Z,86.72
2019-02-23T05:31:45.234Z,85.22
2019-02-23T05:34:15.355Z,83.22
2019-02-23T05:36:45.505Z,78.90
2019-02-23T05:39:17.734Z,81.22
2019-02-23T05:41:47.467Z,84.45
2019-02-23T05:44:19.111Z,73.07
2019-02-23T05:46:49.334Z,84.52
2019-02-23T05:49:19.535Z,82.02
2019-02-23T05:51:49.741Z,80.05
2019-02-23T05:54:19.988Z,70.95
2019-02-23T05:56:50.231Z,83.35
2019-02-23T05:59:20.388Z,83.87
2019-02-23T06:01:50.555Z,71.42
2019-02-23T06:04:20.675Z,76.02
2019-02-23T06:06:51.867Z,77.80
2019-02-23T06:09:21.985Z,83.97
2019-02-23T06:11:52.180Z,89.80
2019-02-23T06:14:22.310Z,82.47
2019-02-23T06:16:54.630Z,75.30
2019-02-23T06:19:25.014Z,93.27
2019-02-23T06:21:55.257Z,82.17
2019-02-23T06:24:25.680Z,85.38
2019-02-23T06:26:55.843Z,80.25
2019-02-23T06:29:26.199Z,71.57
2019-02-23T06:31:56.328Z,87.62
2019-02-23T06:34:26.632Z,75.85
2019-02-23T06:36:56.803Z,85.07
2019-02-23T06:39:27.112Z,84.87
2019-02-23T06:41:57.356Z,103.62
2019-02-23T06:44:27.675Z,90.90
2019-02-23T06:47:03.858Z,84.15
2019-02-23T06:49:34.055Z,72.42
2019-02-23T06:52:05.921Z,76.35
2019-02-23T06:54:36.000Z,82.37
2019-02-23T06:57:06.219Z,71.07
2019-02-23T06:59:36.364Z,77.92
2019-02-23T07:02:06.602Z,66.45
2019-02-23T07:04:37.462Z,57.58
2019-02-23T07:07:07.748Z,66.67
2019-02-23T07:09:44.142Z,53.83
2019-02-23T07:12:14.296Z,76.25
2019-02-23T07:14:44.324Z,66.90
2019-02-23T07:17:14.452Z,68.72
2019-02-23T07:19:44.476Z,66.60
2019-02-23T07:22:15.833Z,64.65
2019-02-23T07:24:46.060Z,58.17
2019-02-23T07:27:16.134Z,60.73
2019-02-23T07:29:46.234Z,67.85
2019-02-23T07:32:16.393Z,55.50
2019-02-23T07:34:46.463Z,50.90
2019-02-23T07:37:16.658Z,51.20
2019-02-23T07:39:46.666Z,55.00
2019-02-23T07:42:16.846Z,52.27
2019-02-23T07:44:46.932Z,45.78
2019-02-23T07:47:17.011Z,42.70
2019-02-23T07:49:47.032Z,46.68
2019-02-23T07:52:26.071Z,43.15
2019-02-23T07:54:48.790Z,44.25
2019-02-23T07:57:19.048Z,40.63
2019-02-23T07:59:49.060Z,32.05
2019-02-23T08:02:19.262Z,28.95
2019-02-23T08:04:49.344Z,35.90
2019-02-23T08:07:20.666Z,49.20
2019-02-23T08:09:52.542Z,42.50
2019-02-23T08:12:23.917Z,37.42
2019-02-23T08:14:54.047Z,33.75
2019-02-23T08:17:24.198Z,38.20
2019-02-23T08:19:55.241Z,33.08
2019-02-23T08:22:25.651Z,37.13
2019-02-23T08:24:55.771Z,35.48
2019-02-23T08:27:26.015Z,38.35
2019-02-23T08:29:56.020Z,36.50
2019-02-23T08:32:27.260Z,41.28
2019-02-23T08:35:00.430Z,39.48
2019-02-23T08:37:30.446Z,50.70
2019-02-23T08:40:00.323Z,35.83
2019-02-23T08:42:32.158Z,27.35
2019-02-23T08:45:02.176Z,25.97
2019-02-23T08:47:32.226Z,29.18
2019-02-23T08:50:02.339Z,28.60
2019-02-23T08:52:32.666Z,26.73
2019-02-23T08:55:02.680Z,29.48
2019-02-23T08:57:32.893Z,33.90
2019-02-23T09:00:03.402Z,24.18
2019-02-23T09:02:33.661Z,17.27
2019-02-23T09:05:03.960Z,19.07
2019-02-23T09:07:34.280Z,21.57
2019-02-23T09:10:06.065Z,15.63
2019-02-23T09:12:36.234Z,24.40
2019-02-23T09:15:07.242Z,26.27
2019-02-23T09:17:37.392Z,32.88
2019-02-23T09:20:09.378Z,36.13
2019-02-23T09:22:39.328Z,29.45
2019-02-23T09:25:10.513Z,31.23
2019-02-23T09:27:40.585Z,35.30
2019-02-23T09:30:14.385Z,38.90
2019-02-23T09:32:45.630Z,44.13
2019-02-23T09:35:15.649Z,36.23
2019-02-23T09:37:45.758Z,30.08
2019-02-23T09:40:18.962Z,28.65
2019-02-23T09:42:49.178Z,31.68
2019-02-23T09:45:19.268Z,31.93
2019-02-23T09:47:49.435Z,27.05
2019-02-23T09:50:19.521Z,29.00
2019-02-23T09:52:50.667Z,29.18
2019-02-23T09:55:20.752Z,25.00
2019-02-23T09:57:50.848Z,23.40
2019-02-23T10:00:20.877Z,22.95
2019-02-23T10:02:51.906Z,24.82
2019-02-23T10:05:21.912Z,24.52
2019-02-23T10:07:51.998Z,23.85
2019-02-23T10:10:21.959Z,30.60
2019-02-23T10:12:52.119Z,25.02
2019-02-23T10:15:22.224Z,26.12
2019-02-23T10:17:52.410Z,24.43
2019-02-23T10:20:22.402Z,23.25
2019-02-23T10:22:52.666Z,27.27
2019-02-23T10:25:22.672Z,23.40
2019-02-23T10:27:53.074Z,27.70
2019-02-23T10:30:23.103Z,24.35
2019-02-23T10:32:54.190Z,24.40
2019-02-23T10:35:24.196Z,24.87
2019-02-23T10:37:54.186Z,30.20
2019-02-23T10:40:24.303Z,23.92
2019-02-23T10:42:54.416Z,28.75
2019-02-23T10:45:24.460Z,27.58
2019-02-23T10:47:54.474Z,27.50
2019-02-23T10:50:24.592Z,24.55
2019-02-23T10:52:54.632Z,23.80
2019-02-23T10:55:24.653Z,26.02
2019-02-23T10:57:54.736Z,24.82
2019-02-23T11:00:24.800Z,25.25
2019-02-23T11:02:54.868Z,26.55
2019-02-23T11:05:25.314Z,31.97
2019-02-23T11:07:55.455Z,23.90
2019-02-23T11:10:25.578Z,26.10
2019-02-23T11:12:55.693Z,25.90
2019-02-23T11:15:25.905Z,23.22
2019-02-23T11:17:55.983Z,21.15
2019-02-23T11:20:26.401Z,19.77
2019-02-23T11:22:56.734Z,23.10
2019-02-23T11:25:26.845Z,27.73
2019-02-23T11:27:57.028Z,23.65
2019-02-23T11:30:28.273Z,23.75
2019-02-23T11:32:58.431Z,26.93
2019-02-23T11:35:28.399Z,20.12
2019-02-23T11:37:58.474Z,20.88
2019-02-23T11:40:28.580Z,23.20
2019-02-23T11:42:58.738Z,25.92
2019-02-23T11:45:30.909Z,18.70
2019-02-23T11:48:00.492Z,20.00
2019-02-23T11:50:30.816Z,22.75
2019-02-23T11:53:00.984Z,23.83
2019-02-23T11:55:31.102Z,20.85
2019-02-23T11:58:01.186Z,26.40
2019-02-23T12:00:31.298Z,20.80
2019-02-23T12:03:01.400Z,19.62
2019-02-23T12:05:31.435Z,25.40
2019-02-23T12:08:01.536Z,21.73
2019-02-23T12:10:31.516Z,21.85
2019-02-23T12:13:01.680Z,17.82
2019-02-23T12:15:31.716Z,19.15
2019-02-23T12:18:01.791Z,17.87
2019-02-23T12:20:31.926Z,20.00
2019-02-23T12:23:01.992Z,21.07
2019-02-23T12:25:32.114Z,21.77
2019-02-23T12:28:02.218Z,22.35
2019-02-23T12:30:32.857Z,18.27
2019-02-23T12:33:03.039Z,18.45
2019-02-23T12:35:33.006Z,17.85
2019-02-23T12:38:05.989Z,18.00
2019-02-23T12:40:35.998Z,20.60
2019-02-23T12:43:06.340Z,19.32
2019-02-23T12:45:36.422Z,17.80
2019-02-23T12:48:06.455Z,22.13
2019-02-23T12:50:36.437Z,20.92
2019-02-23T12:53:06.628Z,32.73
2019-02-23T12:55:37.700Z,23.45
2019-02-23T12:58:07.844Z,20.85
2019-02-23T13:00:37.853Z,21.77
2019-02-23T13:03:07.936Z,22.35
2019-02-23T13:05:37.936Z,23.35
2019-02-23T13:08:08.015Z,18.17
2019-02-23T13:10:38.102Z,19.27
2019-02-23T13:13:18.231Z,27.32
2019-02-23T13:16:02.646Z,25.90
2019-02-23T13:18:44.828Z,24.05
2019-02-23T13:21:32.800Z,24.02
2019-02-23T13:24:28.233Z,18.15
2019-02-23T13:27:16.867Z,20.35
2019-02-23T13:29:58.934Z,19.02
2019-02-23T13:32:56.526Z,21.65
2019-02-23T13:35:53.938Z,20.45
2019-02-23T13:38:43.707Z,24.00
2019-02-23T13:41:25.562Z,24.32
2019-02-23T13:44:13.928Z,21.42
2019-02-23T13:46:47.220Z,17.02
2019-02-23T13:49:42.955Z,19.92
2019-02-23T13:52:36.511Z,30.10
2019-02-23T13:55:34.056Z,24.07
2019-02-23T13:58:13.295Z,22.13
2019-02-23T14:00:55.396Z,34.43
2019-02-23T14:03:40.533Z,29.07
2019-02-23T14:06:13.801Z,20.97
2019-02-23T14:09:04.412Z,24.18
2019-02-23T14:12:05.041Z,26.90
2019-02-23T14:14:44.068Z,28.87
2019-02-23T14:17:34.786Z,23.98
2019-02-23T14:20:22.480Z,27.25
2019-02-23T14:23:21.463Z,21.07
2019-02-23T14:26:03.982Z,27.75
2019-02-23T14:28:48.839Z,17.35
2019-02-23T14:31:31.047Z,17.62
2019-02-23T14:34:30.209Z,21.35
2019-02-23T14:37:24.633Z,22.35
2019-02-23T14:40:06.838Z,23.73
2019-02-23T14:43:11.984Z,20.68
2019-02-23T14:45:54.236Z,24.37
2019-02-23T14:48:39.631Z,19.70
2019-02-23T14:51:32.215Z,18.67
2019-02-23T14:54:08.034Z,20.92
2019-02-23T14:56:50.030Z,24.60
2019-02-23T14:59:25.971Z,25.32
2019-02-23T15:02:01.720Z,24.18
2019-02-23T15:04:40.916Z,23.52
2019-02-23T15:07:14.163Z,25.82
2019-02-23T15:09:47.475Z,19.10
2019-02-23T15:12:32.353Z,14.63
2019-02-23T15:15:08.328Z,22.48
2019-02-23T15:17:47.770Z,27.15
2019-02-23T15:20:39.331Z,26.42
2019-02-23T15:23:21.708Z,30.55
2019-02-23T15:26:14.676Z,32.05
2019-02-23T15:29:09.137Z,28.25
2019-02-23T15:32:06.718Z,25.45
2019-02-23T15:34:45.862Z,22.10
2019-02-23T15:37:23.292Z,23.45
2019-02-23T15:40:08.439Z,21.70
2019-02-23T15:42:54.409Z,24.30
2019-02-23T15:45:39.356Z,26.35
2019-02-23T15:48:27.234Z,30.08
2019-02-23T15:50:57.296Z,28.52
2019-02-23T15:53:27.378Z,38.00
2019-02-23T15:55:57.622Z,35.15
2019-02-23T15:58:29.356Z,37.67
2019-02-23T16:00:59.477Z,39.95
2019-02-23T16:03:29.574Z,40.15
2019-02-23T16:06:00.672Z,35.73
2019-02-23T16:08:30.764Z,39.10
2019-02-23T16:11:00.917Z,34.08
2019-02-23T16:13:30.937Z,29.42
2019-02-23T16:16:01.011Z,31.40
2019-02-23T16:18:31.127Z,30.85
2019-02-23T16:21:01.225Z,39.00
2019-02-23T16:23:35.452Z,37.78
2019-02-23T16:26:02.960Z,38.13
2019-02-23T16:28:32.979Z,42.90
2019-02-23T16:31:03.165Z,29.10
2019-02-23T16:33:33.166Z,32.23
2019-02-23T16:36:03.326Z,31.65
2019-02-23T16:38:33.355Z,28.07
2019-02-23T16:41:03.510Z,26.50
2019-02-23T16:43:33.572Z,27.95
2019-02-23T16:46:03.582Z,29.60
2019-02-23T16:48:34.154Z,33.45
2019-02-23T16:51:04.176Z,29.07
2019-02-23T16:53:34.304Z,27.95
2019-02-23T16:56:04.469Z,34.92
2019-02-23T16:58:34.592Z,38.78
2019-02-23T17:01:04.732Z,39.50
2019-02-23T17:03:34.668Z,39.65
2019-02-23T17:06:04.779Z,38.65
2019-02-23T17:08:34.811Z,42.17
2019-02-23T17:11:06.246Z,40.48
2019-02-23T17:13:36.310Z,41.25
2019-02-23T17:16:06.485Z,36.55
2019-02-23T17:18:36.571Z,36.73
2019-02-23T17:21:06.625Z,43.17
2019-02-23T17:23:36.626Z,51.00
2019-02-23T17:26:06.715Z,49.83
2019-02-23T17:28:38.060Z,46.83
2019-02-23T17:31:08.308Z,37.73
2019-02-23T17:33:38.473Z,29.60
2019-02-23T17:36:08.552Z,34.00
2019-02-23T17:38:38.608Z,40.83
2019-02-23T17:41:08.516Z,37.10
2019-02-23T17:43:40.199Z,37.10
2019-02-23T17:46:12.151Z,39.20
2019-02-23T17:48:42.356Z,47.62
2019-02-23T17:51:12.574Z,50.88
2019-02-23T17:53:42.756Z,61.80
2019-02-23T17:56:14.108Z,65.42
2019-02-23T17:58:44.733Z,69.55
2019-02-23T18:01:15.348Z,67.08
2019-02-23T18:03:45.533Z,74.17
2019-02-23T18:06:15.759Z,75.30
2019-02-23T18:08:45.857Z,70.60
2019-02-23T18:11:15.970Z,68.67
2019-02-23T18:13:46.094Z,53.38
2019-02-23T18:16:16.172Z,49.98
2019-02-23T18:18:46.237Z,53.30
2019-02-23T18:21:16.426Z,56.25
2019-02-23T18:23:46.600Z,46.30
2019-02-23T18:26:21.069Z,50.15
2019-02-23T18:28:48.441Z,50.40
2019-02-23T18:31:18.624Z,55.23
2019-02-23T18:33:48.711Z,52.53
2019-02-23T18:36:18.761Z,62.30
2019-02-23T18:38:48.788Z,67.03
2019-02-23T18:41:18.827Z,67.12
2019-02-23T18:43:49.909Z,63.85
2019-02-23T18:46:20.014Z,70.55
2019-02-23T18:48:51.973Z,68.10
2019-02-23T18:51:21.701Z,67.45
2019-02-23T18:53:51.851Z,67.15
2019-02-23T18:56:29.428Z,61.58
2019-02-23T18:58:53.720Z,57.30
2019-02-23T19:01:23.899Z,59.18
2019-02-23T19:03:56.522Z,65.12
2019-02-23T19:06:28.743Z,61.20
2019-02-23T19:08:58.908Z,64.97
2019-02-23T19:11:29.244Z,66.65
2019-02-23T19:14:00.176Z,65.50
2019-02-23T19:16:32.255Z,68.05
2019-02-23T19:19:02.403Z,70.30
2019-02-23T19:21:32.670Z,82.88
2019-02-23T19:24:02.782Z,69.32
2019-02-23T19:26:38.295Z,69.75
2019-02-23T19:29:04.717Z,79.62
2019-02-23T19:31:34.886Z,75.47
2019-02-23T19:34:05.952Z,67.00
2019-02-23T19:36:36.089Z,64.70
2019-02-23T19:39:06.155Z,56.65
2019-02-23T19:41:37.864Z,55.05
2019-02-23T19:44:08.935Z,49.77
2019-02-23T19:46:42.427Z,50.75
2019-02-23T19:51:41.851Z,45.45
2019-02-23T19:54:13.697Z,57.08
2019-02-23T19:56:46.858Z,54.88
2019-02-23T19:59:15.427Z,61.92
2019-02-23T20:01:48.158Z,59.10
2019-02-23T20:04:18.247Z,69.32
2019-02-23T20:06:48.273Z,64.80
2019-02-23T20:09:18.326Z,60.35
2019-02-23T20:11:50.264Z,65.60
2019-02-23T20:14:20.274Z,68.35
2019-02-23T20:16:56.786Z,69.35
2019-02-23T20:19:43.524Z,62.50
2019-02-23T20:22:13.763Z,71.10
2019-02-23T20:24:43.867Z,70.87
2019-02-23T20:27:14.057Z,73.07
2019-02-23T20:29:44.208Z,89.13
2019-02-23T20:32:14.350Z,81.70
2019-02-23T20:34:51.132Z,82.97
2019-02-23T20:37:21.269Z,88.87
2019-02-23T20:43:22.751Z,90.20
2019-02-23T20:45:52.854Z,89.77
2019-02-23T20:48:23.011Z,97.78
2019-02-23T20:50:53.125Z,98.22
2019-02-23T20:53:23.260Z,84.03
2019-02-23T20:55:53.395Z,91.78
2019-02-23T20:58:23.508Z,93.85
2019-02-23T21:00:53.592Z,74.27
2019-02-23T21:03:23.737Z,80.42
2019-02-23T21:05:54.886Z,77.32
2019-02-23T21:08:38.712Z,65.10
2019-02-23T21:11:08.789Z,63.70
2019-02-23T21:13:38.952Z,74.22
2019-02-23T21:16:10.346Z,71.12
2019-02-23T21:18:43.464Z,65.25
2019-02-23T21:21:17.445Z,68.92
2019-02-23T21:23:57.928Z,72.50
2019-02-23T21:26:28.066Z,82.90
2019-02-23T21:29:14.786Z,85.40
2019-02-23T21:31:50.317Z,83.90
2019-02-23T21:34:20.463Z,78.22
2019-02-23T21:37:10.354Z,80.00
2019-02-23T21:39:40.639Z,68.05
2019-02-23T21:42:10.774Z,72.08
2019-02-23T21:44:40.900Z,71.02
2019-02-23T21:47:11.050Z,74.25
2019-02-23T21:49:41.176Z,78.47
2019-02-23T21:52:16.922Z,77.55
2019-02-23T21:54:47.050Z,79.47
2019-02-23T21:57:22.236Z,75.35
2019-02-23T21:59:48.989Z,77.42
2019-02-23T22:02:19.101Z,76.67
2019-02-23T22:04:50.928Z,83.45
2019-02-23T22:07:21.089Z,85.55
2019-02-23T22:09:51.226Z,83.55
2019-02-23T22:12:21.316Z,81.20
2019-02-23T22:14:54.476Z,78.10
2019-02-23T22:17:24.691Z,77.90
2019-02-23T22:19:54.736Z,78.62
2019-02-23T22:22:24.888Z,82.42
2019-02-23T22:25:12.339Z,79.92
2019-02-23T22:27:59.123Z,76.05
2019-02-23T22:30:35.902Z,74.45
2019-02-23T22:33:06.057Z,75.37
2019-02-23T22:35:43.135Z,90.00
2019-02-23T22:38:13.275Z,88.97
2019-02-23T22:40:43.445Z,90.47
2019-02-23T22:43:15.113Z,81.97
2019-02-23T22:45:54.763Z,93.12
2019-02-23T22:48:24.894Z,89.45
2019-02-23T22:50:55.043Z,90.50
2019-02-23T22:53:25.206Z,94.35
2019-02-23T22:55:55.361Z,101.67
2019-02-23T22:58:25.551Z,97.35
2019-02-23T23:00:57.530Z,108.35
2019-02-23T23:06:15.627Z,131.67
2019-02-23T23:08:48.507Z,131.22
2019-02-23T23:11:22.764Z,144.60
2019-02-23T23:13:52.905Z,144.53
2019-02-23T23:16:23.937Z,141.85
2019-02-23T23:19:03.417Z,143.55
2019-02-23T23:21:41.301Z,136.50
2019-02-23T23:24:11.469Z,139.12
2019-02-23T23:26:45.356Z,129.38
2019-02-23T23:29:15.537Z,111.68
2019-02-23T23:31:45.718Z,126.75
2019-02-23T23:34:17.445Z,121.15
2019-02-23T23:36:47.688Z,121.72
2019-02-23T23:39:17.891Z,124.55
2019-02-23T23:44:47.229Z,126.75
2019-02-23T23:47:17.304Z,121.25
2019-02-23T23:49:57.772Z,121.15
2019-02-23T23:52:27.915Z,124.25
2019-02-23T23:54:58.025Z,124.30
2019-02-23T23:57:28.169Z,125.72
2019-02-23T23:59:58.341Z,123.47
